createdAt,value
2023-04-06T00:01:46.927Z,4.07
2023-04-06T00:06:50.704Z,4.05
2023-04-06T00:11:54.084Z,4.04
2023-04-06T00:16:59.313Z,4.06
2023-04-06T00:22:03.487Z,4.03
2023-04-06T00:27:07.300Z,4.00
2023-04-06T00:32:12.358Z,3.95
2023-04-06T00:37:16.129Z,4.03
2023-04-06T00:42:26.221Z,4.03
2023-04-06T00:47:31.456Z,4.00
2023-04-06T00:52:36.052Z,3.80
2023-04-06T00:57:40.152Z,3.73
2023-04-06T01:02:46.212Z,3.60
2023-04-06T01:07:53.236Z,3.53
2023-04-06T01:13:00.798Z,3.47
2023-04-06T01:18:29.831Z,3.42
2023-04-06T01:23:55.265Z,3.35
2023-04-06T01:29:06.779Z,3.38
2023-04-06T01:34:10.629Z,3.50
2023-04-06T01:39:15.687Z,3.39
2023-04-06T01:44:21.240Z,3.31
2023-04-06T01:49:31.673Z,3.31
2023-04-06T01:54:37.044Z,3.29
2023-04-06T01:59:48.085Z,3.26
2023-04-06T02:05:08.671Z,3.24
2023-04-06T02:10:16.598Z,3.34
2023-04-06T02:15:21.551Z,3.27
2023-04-06T02:20:25.152Z,3.41
2023-04-06T02:25:30.223Z,3.36
2023-04-06T02:30:33.939Z,3.36
2023-04-06T02:35:37.873Z,3.37
2023-04-06T02:40:43.233Z,3.39
2023-04-06T02:45:59.272Z,3.34
2023-04-06T02:51:02.734Z,3.38
2023-04-06T02:56:08.584Z,3.30
2023-04-06T03:01:22.355Z,3.29
2023-04-06T03:06:32.435Z,3.30
2023-04-06T03:11:45.575Z,3.21
2023-04-06T03:16:49.191Z,3.22
2023-04-06T03:21:56.854Z,3.26
2023-04-06T03:27:03.295Z,3.23
2023-04-06T03:32:08.074Z,3.25
2023-04-06T03:37:16.426Z,3.22
2023-04-06T03:42:27.813Z,3.18
2023-04-06T03:47:37.801Z,3.15
2023-04-06T03:52:44.394Z,3.13
2023-04-06T03:57:49.374Z,3.18
2023-04-06T04:02:53.405Z,3.17
2023-04-06T04:07:58.233Z,3.26
2023-04-06T04:13:05.422Z,3.32
2023-04-06T04:18:09.348Z,3.21
2023-04-06T04:23:12.957Z,3.21
2023-04-06T04:28:17.812Z,3.31
2023-04-06T04:33:22.688Z,3.28
2023-04-06T04:38:27.832Z,3.29
2023-04-06T04:43:35.403Z,3.40
2023-04-06T04:48:40.779Z,3.44
2023-04-06T04:53:45.405Z,3.46
2023-04-06T04:58:59.542Z,3.54
2023-04-06T05:04:06.976Z,3.47
2023-04-06T05:09:12.029Z,3.45
2023-04-06T05:14:21.179Z,3.56
2023-04-06T05:19:24.796Z,3.55
2023-04-06T05:24:28.631Z,3.66
2023-04-06T05:29:34.298Z,3.70
2023-04-06T05:34:39.546Z,3.82
2023-04-06T05:39:44.127Z,3.85
2023-04-06T05:44:49.545Z,3.85
2023-04-06T05:49:54.452Z,3.97
2023-04-06T05:55:10.636Z,4.06
2023-04-06T06:00:17.848Z,4.06
2023-04-06T06:05:31.348Z,4.13
2023-04-06T06:10:41.967Z,4.20
2023-04-06T06:15:50.140Z,4.33
2023-04-06T06:20:56.020Z,4.42
2023-04-06T06:26:00.037Z,4.33
2023-04-06T06:31:06.240Z,4.43
2023-04-06T06:36:10.247Z,4.43
2023-04-06T06:41:14.575Z,4.43
2023-04-06T06:46:19.783Z,4.52
2023-04-06T06:51:23.470Z,4.54
2023-04-06T06:56:27.812Z,4.70
2023-04-06T07:01:34.723Z,4.92
2023-04-06T07:06:39.289Z,5.14
2023-04-06T07:11:43.806Z,5.39
2023-04-06T07:16:49.978Z,5.67
2023-04-06T07:21:53.913Z,5.60
2023-04-06T07:26:58.042Z,5.74
2023-04-06T07:32:03.564Z,5.79
2023-04-06T07:37:08.963Z,5.94
2023-04-06T07:42:13.024Z,6.26
2023-04-06T07:47:18.447Z,6.33
2023-04-06T07:52:22.331Z,6.83
2023-04-06T07:57:27.165Z,6.77
2023-04-06T08:02:32.499Z,6.69
2023-04-06T08:07:36.691Z,6.59
2023-04-06T08:12:40.155Z,6.71
2023-04-06T08:17:45.033Z,6.75
2023-04-06T08:22:48.876Z,6.65
2023-04-06T08:27:53.703Z,6.72
2023-04-06T08:32:58.587Z,6.50
2023-04-06T08:38:03.459Z,6.65
2023-04-06T08:43:12.633Z,6.76
2023-04-06T08:48:18.747Z,6.90
2023-04-06T08:53:24.243Z,6.96
2023-04-06T08:58:37.819Z,7.03
2023-04-06T09:03:44.465Z,7.19
2023-04-06T09:08:47.965Z,7.17
2023-04-06T09:13:53.685Z,7.14
2023-04-06T09:19:06.662Z,7.44
2023-04-06T09:24:11.401Z,7.37
2023-04-06T09:29:25.482Z,7.40
2023-04-06T09:34:30.591Z,7.20
2023-04-06T09:39:34.311Z,6.94
2023-04-06T09:44:38.378Z,7.05
2023-04-06T09:49:44.160Z,7.08
2023-04-06T09:54:52.526Z,7.68
2023-04-06T10:00:10.728Z,8.00
2023-04-06T10:05:27.378Z,7.71
2023-04-06T10:10:31.504Z,7.71
2023-04-06T10:15:36.169Z,7.98
2023-04-06T10:20:45.891Z,7.77
2023-04-06T10:25:56.648Z,7.82
2023-04-06T10:31:01.724Z,7.77
2023-04-06T10:36:17.289Z,7.81
2023-04-06T10:41:21.727Z,7.81
2023-04-06T10:46:28.240Z,7.71
2023-04-06T10:51:34.008Z,7.72
2023-04-06T10:56:41.313Z,8.06
2023-04-06T11:01:47.262Z,8.23
2023-04-06T11:06:52.609Z,8.34
2023-04-06T11:11:57.190Z,8.67
2023-04-06T11:17:00.638Z,8.78
2023-04-06T11:22:10.635Z,8.47
2023-04-06T11:27:16.107Z,8.23
2023-04-06T11:32:24.616Z,8.27
2023-04-06T11:37:30.420Z,8.34
2023-04-06T11:42:37.234Z,8.63
2023-04-06T11:47:41.718Z,8.57
2023-04-06T11:52:47.530Z,8.54
2023-04-06T11:57:52.686Z,8.67
2023-04-06T12:02:56.200Z,8.84
2023-04-06T12:08:03.293Z,8.39
2023-04-06T12:13:07.670Z,8.19
2023-04-06T12:18:11.801Z,8.26
2023-04-06T12:23:16.683Z,8.59
2023-04-06T12:28:21.730Z,8.85
2023-04-06T12:33:25.764Z,8.84
2023-04-06T12:38:31.381Z,9.18
2023-04-06T12:43:34.942Z,9.22
2023-04-06T12:48:38.806Z,9.47
2023-04-06T12:53:43.835Z,9.19
2023-04-06T12:58:48.104Z,9.58
2023-04-06T13:03:52.498Z,10.29
2023-04-06T13:08:57.350Z,10.12
2023-04-06T13:14:01.075Z,9.66
2023-04-06T13:19:04.524Z,9.52
2023-04-06T13:24:09.600Z,9.58
2023-04-06T13:29:13.074Z,9.37
2023-04-06T13:34:17.099Z,9.22
2023-04-06T13:39:22.217Z,9.63
2023-04-06T13:44:25.862Z,9.58
2023-04-06T13:49:29.290Z,9.65
2023-04-06T13:54:34.349Z,9.61
2023-04-06T13:59:38.960Z,9.46
2023-04-06T14:04:42.385Z,9.29
2023-04-06T14:09:47.257Z,9.66
2023-04-06T14:14:51.029Z,9.86
2023-04-06T14:19:54.665Z,9.86
2023-04-06T14:24:59.936Z,10.66
2023-04-06T14:30:03.345Z,11.00
2023-04-06T14:35:08.245Z,10.43
2023-04-06T14:40:13.990Z,10.17
2023-04-06T14:45:18.300Z,9.80
2023-04-06T14:50:21.882Z,9.48
2023-04-06T14:55:27.070Z,9.34
2023-04-06T15:00:30.496Z,9.36
2023-04-06T15:05:36.137Z,9.35
2023-04-06T15:10:41.751Z,9.28
2023-04-06T15:15:45.515Z,9.05
2023-04-06T15:20:49.298Z,8.97
2023-04-06T15:25:54.262Z,8.99
2023-04-06T15:30:58.637Z,8.88
2023-04-06T15:36:08.892Z,8.82
2023-04-06T15:41:15.776Z,8.82
2023-04-06T15:46:19.404Z,8.77
2023-04-06T15:51:22.786Z,8.72
2023-04-06T15:56:27.636Z,8.78
2023-04-06T16:01:31.937Z,8.70
2023-04-06T16:06:35.533Z,8.64
2023-04-06T16:11:40.430Z,8.62
2023-04-06T16:16:44.044Z,8.56
2023-04-06T16:21:47.638Z,8.52
2023-04-06T16:26:52.465Z,8.52
2023-04-06T16:31:56.030Z,8.36
2023-04-06T16:36:59.894Z,8.35
2023-04-06T16:42:04.868Z,8.34
2023-04-06T16:47:08.626Z,8.24
2023-04-06T16:52:12.224Z,8.17
2023-04-06T16:57:18.161Z,8.16
2023-04-06T17:02:21.605Z,8.02
2023-04-06T17:07:26.586Z,7.95
2023-04-06T17:12:31.436Z,7.96
2023-04-06T17:17:34.942Z,7.95
2023-04-06T17:22:38.784Z,7.96
2023-04-06T17:27:43.989Z,7.92
2023-04-06T17:32:48.093Z,7.84
2023-04-06T17:37:51.988Z,7.67
2023-04-06T17:42:58.275Z,7.49
2023-04-06T17:48:01.731Z,7.41
2023-04-06T17:53:05.436Z,7.29
2023-04-06T17:58:10.227Z,7.08
2023-04-06T18:03:15.948Z,6.97
2023-04-06T18:08:19.490Z,6.75
2023-04-06T18:13:24.363Z,6.52
2023-04-06T18:18:29.774Z,6.44
2023-04-06T18:23:34.416Z,6.38
2023-04-06T18:28:39.236Z,6.38
2023-04-06T18:33:46.903Z,6.38
2023-04-06T18:38:51.517Z,6.39
2023-04-06T18:43:56.727Z,6.28
2023-04-06T18:49:00.266Z,6.24
2023-04-06T18:54:03.798Z,6.11
2023-04-06T18:59:09.163Z,6.08
2023-04-06T19:04:13.253Z,6.02
2023-04-06T19:09:16.849Z,6.05
2023-04-06T19:14:21.929Z,5.97
2023-04-06T19:19:25.360Z,5.77
2023-04-06T19:24:29.930Z,5.62
2023-04-06T19:29:35.023Z,5.67
2023-04-06T19:34:38.881Z,5.65
2023-04-06T19:39:44.133Z,5.65
2023-04-06T19:44:49.148Z,5.65
2023-04-06T19:49:52.646Z,5.53
2023-04-06T19:54:56.005Z,5.60
2023-04-06T20:00:01.315Z,5.52
2023-04-06T20:05:13.196Z,5.41
2023-04-06T20:10:16.754Z,5.26
2023-04-06T20:15:23.314Z,5.16
2023-04-06T20:20:26.894Z,5.13
2023-04-06T20:25:30.383Z,5.12
2023-04-06T20:30:35.528Z,5.16
2023-04-06T20:35:39.023Z,5.14
2023-04-06T20:40:45.644Z,5.24
2023-04-06T20:45:50.706Z,5.15
2023-04-06T20:50:54.430Z,5.13
2023-04-06T20:55:58.232Z,5.08
2023-04-06T21:01:03.049Z,5.18
2023-04-06T21:06:06.933Z,5.06
2023-04-06T21:11:10.925Z,4.86
2023-04-06T21:16:15.866Z,5.18
2023-04-06T21:21:19.315Z,4.96
2023-04-06T21:26:22.726Z,4.93
2023-04-06T21:31:27.876Z,4.96
2023-04-06T21:36:32.853Z,4.82
2023-04-06T21:41:36.648Z,4.87
2023-04-06T21:46:41.748Z,4.89
2023-04-06T21:51:45.234Z,4.93
2023-04-06T21:56:48.946Z,4.83
2023-04-06T22:01:56.683Z,4.93
2023-04-06T22:07:00.735Z,5.04
2023-04-06T22:12:04.147Z,5.18
2023-04-06T22:17:09.299Z,5.17
2023-04-06T22:22:13.086Z,5.21
2023-04-06T22:27:16.810Z,5.25
2023-04-06T22:32:21.597Z,5.32
2023-04-06T22:37:25.151Z,5.25
2023-04-06T22:42:28.670Z,5.15
2023-04-06T22:47:33.902Z,5.08
2023-04-06T22:52:37.972Z,5.03
2023-04-06T22:57:41.416Z,5.10
2023-04-06T23:02:46.515Z,4.92
2023-04-06T23:07:51.322Z,4.91
2023-04-06T23:12:54.720Z,4.90
2023-04-06T23:17:59.574Z,4.87
2023-04-06T23:23:02.950Z,4.81
2023-04-06T23:28:06.332Z,4.78
2023-04-06T23:33:11.479Z,4.68
2023-04-06T23:38:14.907Z,4.61
2023-04-06T23:43:18.404Z,4.62
2023-04-06T23:48:23.198Z,4.60
2023-04-06T23:53:26.803Z,4.52
2023-04-06T23:58:30.494Z,4.46
